sensor_id;sensor_type;location;lat;lon;timestamp;pressure;altitude;pressure_sealevel;temperature;humidity
78584;BME280;67880;46.082;18.234;2023-06-14T00:00:30;99310.41;;;15.55;59.17
78584;BME280;67880;46.082;18.234;2023-06-14T00:01:03;99304.53;;;15.52;58.69
78584;BME280;67880;46.082;18.234;2023-06-14T00:01:37;99302.28;;;15.55;58.77
78584;BME280;67880;46.082;18.234;2023-06-14T00:02:10;99307.47;;;15.57;58.10
78584;BME280;67880;46.082;18.234;2023-06-14T00:02:42;99310.41;;;15.55;58.03
78584;BME280;67880;46.082;18.234;2023-06-14T00:03:14;99308.31;;;15.57;57.82
78584;BME280;67880;46.082;18.234;2023-06-14T00:03:49;99316.06;;;15.60;57.40
78584;BME280;67880;46.082;18.234;2023-06-14T00:04:22;99303.56;;;15.59;57.75
78584;BME280;67880;46.082;18.234;2023-06-14T00:05:29;99307.09;;;15.60;57.64
78584;BME280;67880;46.082;18.234;2023-06-14T00:06:04;99308.78;;;15.61;57.78
78584;BME280;67880;46.082;18.234;2023-06-14T00:06:36;99297.94;;;15.61;57.43
78584;BME280;67880;46.082;18.234;2023-06-14T00:07:45;99307.09;;;15.60;57.56
78584;BME280;67880;46.082;18.234;2023-06-14T00:08:20;99308.78;;;15.61;57.21
78584;BME280;67880;46.082;18.234;2023-06-14T00:08:54;99311.03;;;15.57;57.58
78584;BME280;67880;46.082;18.234;2023-06-14T00:09:26;99309.59;;;15.61;57.96
78584;BME280;67880;46.082;18.234;2023-06-14T00:09:59;99307.28;;;15.58;58.00
78584;BME280;67880;46.082;18.234;2023-06-14T00:10:31;99304.56;;;15.58;58.02
78584;BME280;67880;46.082;18.234;2023-06-14T00:11:04;99311.91;;;15.64;58.30
78584;BME280;67880;46.082;18.234;2023-06-14T00:11:36;99311.28;;;15.62;58.28
78584;BME280;67880;46.082;18.234;2023-06-14T00:12:08;99313.16;;;15.62;58.55
78584;BME280;67880;46.082;18.234;2023-06-14T00:12:41;99307.09;;;15.60;58.49
78584;BME280;67880;46.082;18.234;2023-06-14T00:13:13;99304.19;;;15.61;58.52
78584;BME280;67880;46.082;18.234;2023-06-14T00:13:46;99304.41;;;15.60;58.63
78584;BME280;67880;46.082;18.234;2023-06-14T00:14:18;99310.63;;;15.60;59.39
78584;BME280;67880;46.082;18.234;2023-06-14T00:15:24;99300.81;;;15.53;59.20
78584;BME280;67880;46.082;18.234;2023-06-14T00:15:56;99303.75;;;15.58;58.96
78584;BME280;67880;46.082;18.234;2023-06-14T00:16:28;99307.28;;;15.58;59.06
78584;BME280;67880;46.082;18.234;2023-06-14T00:17:33;99301.22;;;15.50;59.19
78584;BME280;67880;46.082;18.234;2023-06-14T00:18:38;99312.63;;;15.45;59.58
78584;BME280;67880;46.082;18.234;2023-06-14T00:19:10;99307.22;;;15.45;60.26
78584;BME280;67880;46.082;18.234;2023-06-14T00:19:42;99303.88;;;15.43;60.14
78584;BME280;67880;46.082;18.234;2023-06-14T00:20:14;99305.75;;;15.42;60.48
78584;BME280;67880;46.082;18.234;2023-06-14T00:20:47;99307.81;;;15.40;60.35
78584;BME280;67880;46.082;18.234;2023-06-14T00:21:19;99296.75;;;15.35;60.31
78584;BME280;67880;46.082;18.234;2023-06-14T00:21:51;99306.34;;;15.38;60.39
78584;BME280;67880;46.082;18.234;2023-06-14T00:22:25;99310.28;;;15.35;60.30
78584;BME280;67880;46.082;18.234;2023-06-14T00:22:57;99302.59;;;15.39;60.36
78584;BME280;67880;46.082;18.234;2023-06-14T00:23:29;99297.38;;;15.37;60.26
78584;BME280;67880;46.082;18.234;2023-06-14T00:24:02;99304.91;;;15.42;60.00
78584;BME280;67880;46.082;18.234;2023-06-14T00:24:34;99314.69;;;15.43;59.66
78584;BME280;67880;46.082;18.234;2023-06-14T00:25:06;99307.41;;;15.43;59.71
78584;BME280;67880;46.082;18.234;2023-06-14T00:25:58;99298.66;;;15.41;59.04
78584;BME280;67880;46.082;18.234;2023-06-14T00:26:30;99308.91;;;15.46;59.01
78584;BME280;67880;46.082;18.234;2023-06-14T00:27:02;99298.25;;;15.44;59.25
78584;BME280;67880;46.082;18.234;2023-06-14T00:27:34;99295.97;;;15.41;59.32
78584;BME280;67880;46.082;18.234;2023-06-14T00:28:06;99299.91;;;15.45;58.92
78584;BME280;67880;46.082;18.234;2023-06-14T00:28:38;99305.78;;;15.49;59.01
78584;BME280;67880;46.082;18.234;2023-06-14T00:29:42;99303.06;;;15.49;58.97
78584;BME280;67880;46.082;18.234;2023-06-14T00:30:14;99306.63;;;15.50;58.99
78584;BME280;67880;46.082;18.234;2023-06-14T00:30:47;99305.78;;;15.49;59.81
78584;BME280;67880;46.082;18.234;2023-06-14T00:31:19;99303.31;;;15.54;59.41
78584;BME280;67880;46.082;18.234;2023-06-14T00:31:51;99303.13;;;15.56;59.33
78584;BME280;67880;46.082;18.234;2023-06-14T00:32:23;99305.81;;;15.56;59.99
78584;BME280;67880;46.082;18.234;2023-06-14T00:32:57;99301.41;;;15.48;60.10
78584;BME280;67880;46.082;18.234;2023-06-14T00:33:30;99306.38;;;15.44;59.64
78584;BME280;67880;46.082;18.234;2023-06-14T00:34:02;99301.16;;;15.43;59.88
78584;BME280;67880;46.082;18.234;2023-06-14T00:34:34;99308.03;;;15.45;59.88
78584;BME280;67880;46.082;18.234;2023-06-14T00:35:06;99304.50;;;15.45;59.65
78584;BME280;67880;46.082;18.234;2023-06-14T00:35:39;99299.72;;;15.40;59.40
78584;BME280;67880;46.082;18.234;2023-06-14T00:36:11;99300.53;;;15.41;59.64
78584;BME280;67880;46.082;18.234;2023-06-14T00:36:44;99301.63;;;15.47;59.73
78584;BME280;67880;46.082;18.234;2023-06-14T00:37:16;99304.94;;;15.49;59.80
78584;BME280;67880;46.082;18.234;2023-06-14T00:37:48;99301.41;;;15.48;60.00
78584;BME280;67880;46.082;18.234;2023-06-14T00:38:20;99307.88;;;15.47;60.00
78584;BME280;67880;46.082;18.234;2023-06-14T00:38:52;99303.06;;;15.49;59.07
78584;BME280;67880;46.082;18.234;2023-06-14T00:39:24;99296.63;;;15.50;58.90
78584;BME280;67880;46.082;18.234;2023-06-14T00:39:56;99300.00;;;15.52;58.95
78584;BME280;67880;46.082;18.234;2023-06-14T00:40:28;99305.16;;;15.47;59.13
78584;BME280;67880;46.082;18.234;2023-06-14T00:41:00;99301.63;;;15.47;59.40
78584;BME280;67880;46.082;18.234;2023-06-14T00:41:32;99303.06;;;15.49;59.09
78584;BME280;67880;46.082;18.234;2023-06-14T00:42:04;99296.84;;;15.49;59.18
78584;BME280;67880;46.082;18.234;2023-06-14T00:42:37;99298.91;;;15.47;59.43
78584;BME280;67880;46.082;18.234;2023-06-14T00:43:10;99301.78;;;15.45;59.27
78584;BME280;67880;46.082;18.234;2023-06-14T00:43:42;99305.78;;;15.49;59.40
78584;BME280;67880;46.082;18.234;2023-06-14T00:44:16;99301.22;;;15.50;59.75
78584;BME280;67880;46.082;18.234;2023-06-14T00:44:48;99300.78;;;15.46;59.96
78584;BME280;67880;46.082;18.234;2023-06-14T00:45:20;99296.59;;;15.43;60.50
78584;BME280;67880;46.082;18.234;2023-06-14T00:45:52;99300.97;;;15.44;60.43
78584;BME280;67880;46.082;18.234;2023-06-14T00:46:24;99302.41;;;15.40;60.41
78584;BME280;67880;46.082;18.234;2023-06-14T00:46:57;99302.41;;;15.40;60.32
78584;BME280;67880;46.082;18.234;2023-06-14T00:48:37;99303.47;;;15.39;59.04
78584;BME280;67880;46.082;18.234;2023-06-14T00:49:14;99303.25;;;15.41;59.16
78584;BME280;67880;46.082;18.234;2023-06-14T00:49:50;99302.22;;;15.42;59.58
78584;BME280;67880;46.082;18.234;2023-06-14T00:50:23;99307.41;;;15.43;59.61
78584;BME280;67880;46.082;18.234;2023-06-14T00:50:57;99302.63;;;15.45;59.27
78584;BME280;67880;46.082;18.234;2023-06-14T00:51:29;99297.84;;;15.41;59.30
78584;BME280;67880;46.082;18.234;2023-06-14T00:52:35;99304.91;;;15.42;59.53
78584;BME280;67880;46.082;18.234;2023-06-14T00:53:07;99308.25;;;15.44;59.61
78584;BME280;67880;46.082;18.234;2023-06-14T00:53:39;99300.53;;;15.41;60.08
78584;BME280;67880;46.082;18.234;2023-06-14T00:54:17;99301.59;;;15.40;59.73
78584;BME280;67880;46.082;18.234;2023-06-14T00:54:49;99295.50;;;15.38;59.45
78584;BME280;67880;46.082;18.234;2023-06-14T00:55:22;99302.41;;;15.40;59.60
78584;BME280;67880;46.082;18.234;2023-06-14T00:55:54;99297.63;;;15.42;59.14
78584;BME280;67880;46.082;18.234;2023-06-14T00:56:26;99299.09;;;15.45;59.21
78584;BME280;67880;46.082;18.234;2023-06-14T00:56:59;99299.09;;;15.45;58.74
78584;BME280;67880;46.082;18.234;2023-06-14T00:57:31;99304.13;;;15.48;58.46
78584;BME280;67880;46.082;18.234;2023-06-14T00:58:04;99297.22;;;15.45;57.92
78584;BME280;67880;46.082;18.234;2023-06-14T00:58:36;99293.06;;;15.43;57.75
78584;BME280;67880;46.082;18.234;2023-06-14T00:59:09;99294.72;;;15.44;58.72
78584;BME280;67880;46.082;18.234;2023-06-14T00:59:45;99297.22;;;15.45;58.54
78584;BME280;67880;46.082;18.234;2023-06-14T01:00:18;99292.47;;;15.48;58.26
78584;BME280;67880;46.082;18.234;2023-06-14T01:00:50;99293.06;;;15.43;58.46
78584;BME280;67880;46.082;18.234;2023-06-14T01:01:55;99293.91;;;15.50;58.48
78584;BME280;67880;46.082;18.234;2023-06-14T01:02:27;99300.16;;;15.51;58.61
78584;BME280;67880;46.082;18.234;2023-06-14T01:02:59;99296.22;;;15.47;58.65
78584;BME280;67880;46.082;18.234;2023-06-14T01:03:31;99296.22;;;15.47;59.04
78584;BME280;67880;46.082;18.234;2023-06-14T01:04:39;99299.09;;;15.45;58.81
78584;BME280;67880;46.082;18.234;2023-06-14T01:05:17;99291.38;;;15.42;58.83
78584;BME280;67880;46.082;18.234;2023-06-14T01:05:56;99291.19;;;15.43;58.88
78584;BME280;67880;46.082;18.234;2023-06-14T01:08:37;99298.50;;;15.50;58.24
78584;BME280;67880;46.082;18.234;2023-06-14T01:10:52;99297.66;;;15.49;58.03
78584;BME280;67880;46.082;18.234;2023-06-14T01:11:31;99299.53;;;15.49;57.97
78584;BME280;67880;46.082;18.234;2023-06-14T01:12:15;99290.59;;;15.48;58.01
78584;BME280;67880;46.082;18.234;2023-06-14T01:13:46;99295.56;;;15.44;58.36
78584;BME280;67880;46.082;18.234;2023-06-14T01:14:20;99294.72;;;15.44;58.25
78584;BME280;67880;46.082;18.234;2023-06-14T01:14:54;99287.41;;;15.38;58.74
78584;BME280;67880;46.082;18.234;2023-06-14T01:15:30;99285.34;;;15.40;58.63
78584;BME280;67880;46.082;18.234;2023-06-14T01:16:03;99284.94;;;15.43;58.32
78584;BME280;67880;46.082;18.234;2023-06-14T01:16:36;99288.69;;;15.42;58.44
78584;BME280;67880;46.082;18.234;2023-06-14T01:17:11;99285.78;;;15.43;58.27
78584;BME280;67880;46.082;18.234;2023-06-14T01:17:51;99292.22;;;15.42;58.07
78584;BME280;67880;46.082;18.234;2023-06-14T01:19:01;99283.25;;;15.35;58.53
78584;BME280;67880;46.082;18.234;2023-06-14T01:19:42;99288.19;;;15.32;58.91
78584;BME280;67880;46.082;18.234;2023-06-14T01:20:15;99293.84;;;15.37;58.62
78584;BME280;67880;46.082;18.234;2023-06-14T01:20:49;99282.19;;;15.36;58.34
78584;BME280;67880;46.082;18.234;2023-06-14T01:21:25;99282.19;;;15.36;58.50
78584;BME280;67880;46.082;18.234;2023-06-14T01:22:00;99284.06;;;15.36;58.49
78584;BME280;67880;46.082;18.234;2023-06-14T01:22:32;99283.03;;;15.37;58.63
78584;BME280;67880;46.082;18.234;2023-06-14T01:23:05;99284.47;;;15.33;58.89
78584;BME280;67880;46.082;18.234;2023-06-14T01:23:37;99286.31;;;15.32;59.00
78584;BME280;67880;46.082;18.234;2023-06-14T01:24:09;99281.13;;;15.31;58.92
78584;BME280;67880;46.082;18.234;2023-06-14T01:24:43;99281.94;;;15.31;59.04
78584;BME280;67880;46.082;18.234;2023-06-14T01:25:17;99266.97;;;15.29;59.07
78584;BME280;67880;46.082;18.234;2023-06-14T01:25:52;99279.00;;;15.26;58.87
78584;BME280;67880;46.082;18.234;2023-06-14T01:26:24;99270.47;;;15.23;59.17
78584;BME280;67880;46.082;18.234;2023-06-14T01:27:02;99275.47;;;15.26;59.19
78584;BME280;67880;46.082;18.234;2023-06-14T01:27:34;99278.81;;;15.28;59.46
78584;BME280;67880;46.082;18.234;2023-06-14T01:28:07;99277.34;;;15.25;59.26
78584;BME280;67880;46.082;18.234;2023-06-14T01:28:43;99274.00;;;15.23;59.52
78584;BME280;67880;46.082;18.234;2023-06-14T01:29:20;99274.63;;;15.25;59.36
78584;BME280;67880;46.082;18.234;2023-06-14T01:29:54;99274.47;;;15.27;59.20
78584;BME280;67880;46.082;18.234;2023-06-14T01:30:29;99279.66;;;15.28;58.92
78584;BME280;67880;46.082;18.234;2023-06-14T01:31:03;99278.16;;;15.26;58.48
78584;BME280;67880;46.082;18.234;2023-06-14T01:31:37;99272.13;;;15.24;57.98
78584;BME280;67880;46.082;18.234;2023-06-14T01:32:47;99280.88;;;15.26;58.00
78584;BME280;67880;46.082;18.234;2023-06-14T01:33:21;99279.66;;;15.28;58.52
78584;BME280;67880;46.082;18.234;2023-06-14T01:33:54;99276.75;;;15.30;57.76
78584;BME280;67880;46.082;18.234;2023-06-14T01:34:27;99281.13;;;15.31;58.34
78584;BME280;67880;46.082;18.234;2023-06-14T01:34:59;99273.59;;;15.26;58.13
78584;BME280;67880;46.082;18.234;2023-06-14T01:35:31;99276.31;;;15.26;58.14
78584;BME280;67880;46.082;18.234;2023-06-14T01:36:05;99275.28;;;15.27;57.90
78584;BME280;67880;46.082;18.234;2023-06-14T01:36:41;99276.97;;;15.28;58.19
78584;BME280;67880;46.082;18.234;2023-06-14T01:37:14;99273.41;;;15.28;58.66
78584;BME280;67880;46.082;18.234;2023-06-14T01:37:48;99279.44;;;15.30;58.11
78584;BME280;67880;46.082;18.234;2023-06-14T01:38:53;99275.31;;;15.34;57.56
78584;BME280;67880;46.082;18.234;2023-06-14T01:39:28;99269.91;;;15.34;57.36
78584;BME280;67880;46.082;18.234;2023-06-14T01:40:34;99278.44;;;15.37;56.96
78584;BME280;67880;46.082;18.234;2023-06-14T01:41:08;99278.25;;;15.39;57.20
78584;BME280;67880;46.082;18.234;2023-06-14T01:41:42;99272.66;;;15.40;56.56
78584;BME280;67880;46.082;18.234;2023-06-14T01:42:17;99277.41;;;15.38;56.93
78584;BME280;67880;46.082;18.234;2023-06-14T01:42:50;99272.84;;;15.39;57.14
78584;BME280;67880;46.082;18.234;2023-06-14T01:43:23;99278.88;;;15.34;57.70
78584;BME280;67880;46.082;18.234;2023-06-14T01:43:58;99273.66;;;15.33;56.99
78584;BME280;67880;46.082;18.234;2023-06-14T01:44:31;99267.84;;;15.36;57.63
78584;BME280;67880;46.082;18.234;2023-06-14T01:45:05;99275.31;;;15.34;57.70
78584;BME280;67880;46.082;18.234;2023-06-14T01:46:15;99275.38;;;15.40;57.04
78584;BME280;67880;46.082;18.234;2023-06-14T01:46:48;99276.19;;;15.41;57.54
78584;BME280;67880;46.082;18.234;2023-06-14T01:47:21;99273.28;;;15.42;57.42
78584;BME280;67880;46.082;18.234;2023-06-14T01:47:53;99268.91;;;15.41;57.57
78584;BME280;67880;46.082;18.234;2023-06-14T01:48:26;99278.50;;;15.44;57.66
78584;BME280;67880;46.082;18.234;2023-06-14T01:48:59;99269.34;;;15.45;57.23
78584;BME280;67880;46.082;18.234;2023-06-14T01:49:34;99276.44;;;15.46;57.51
78584;BME280;67880;46.082;18.234;2023-06-14T01:50:06;99276.00;;;15.42;57.44
78584;BME280;67880;46.082;18.234;2023-06-14T01:50:39;99277.66;;;15.43;56.75
78584;BME280;67880;46.082;18.234;2023-06-14T01:51:11;99277.88;;;15.42;57.06
78584;BME280;67880;46.082;18.234;2023-06-14T01:51:43;99275.38;;;15.40;57.39
78584;BME280;67880;46.082;18.234;2023-06-14T01:52:15;99273.28;;;15.42;57.50
78584;BME280;67880;46.082;18.234;2023-06-14T01:52:47;99273.28;;;15.42;57.42
78584;BME280;67880;46.082;18.234;2023-06-14T01:53:19;99278.69;;;15.42;57.50
78584;BME280;67880;46.082;18.234;2023-06-14T01:53:53;99269.97;;;15.40;57.55
78584;BME280;67880;46.082;18.234;2023-06-14T01:54:25;99279.72;;;15.41;57.52
78584;BME280;67880;46.082;18.234;2023-06-14T01:54:57;99272.81;;;15.32;56.43
78584;BME280;67880;46.082;18.234;2023-06-14T01:55:30;99276.78;;;15.36;57.20
78584;BME280;67880;46.082;18.234;2023-06-14T01:56:05;99269.09;;;15.33;56.90
78584;BME280;67880;46.082;18.234;2023-06-14T01:56:38;99276.16;;;15.34;57.00
78584;BME280;67880;46.082;18.234;2023-06-14T01:57:10;99268.25;;;15.33;57.21
78584;BME280;67880;46.082;18.234;2023-06-14T01:57:42;99271.13;;;15.31;57.29
78584;BME280;67880;46.082;18.234;2023-06-14T01:58:15;99279.69;;;15.35;57.02
78584;BME280;67880;46.082;18.234;2023-06-14T01:58:48;99268.66;;;15.36;56.90
78584;BME280;67880;46.082;18.234;2023-06-14T01:59:54;99275.38;;;15.40;57.09
78584;BME280;67880;46.082;18.234;2023-06-14T02:00:26;99272.22;;;15.37;56.83
78584;BME280;67880;46.082;18.234;2023-06-14T02:00:59;99269.09;;;15.33;57.13
78584;BME280;67880;46.082;18.234;2023-06-14T02:01:32;99278.44;;;15.37;57.26
78584;BME280;67880;46.082;18.234;2023-06-14T02:02:06;99283.66;;;15.39;56.87
78584;BME280;67880;46.082;18.234;2023-06-14T02:02:38;99270.75;;;15.34;56.62
78584;BME280;67880;46.082;18.234;2023-06-14T02:03:11;99284.69;;;15.38;57.31
78584;BME280;67880;46.082;18.234;2023-06-14T02:03:44;99274.03;;;15.30;57.16
78584;BME280;67880;46.082;18.234;2023-06-14T02:04:16;99278.41;;;15.31;56.80
78584;BME280;67880;46.082;18.234;2023-06-14T02:04:48;99274.25;;;15.28;57.20
78584;BME280;67880;46.082;18.234;2023-06-14T02:05:20;99276.31;;;15.26;56.54
78584;BME280;67880;46.082;18.234;2023-06-14T02:05:52;99268.38;;;15.25;56.78
78584;BME280;67880;46.082;18.234;2023-06-14T02:06:26;99276.31;;;15.26;56.85
78584;BME280;67880;46.082;18.234;2023-06-14T02:07:33;99284.88;;;15.30;56.51
78584;BME280;67880;46.082;18.234;2023-06-14T02:08:06;99275.72;;;15.31;56.69
78584;BME280;67880;46.082;18.234;2023-06-14T02:08:38;99276.13;;;15.28;56.62
78584;BME280;67880;46.082;18.234;2023-06-14T02:09:10;99282.56;;;15.27;56.83
78584;BME280;67880;46.082;18.234;2023-06-14T02:09:42;99283.19;;;15.29;56.75
78584;BME280;67880;46.082;18.234;2023-06-14T02:10:14;99284.66;;;15.31;56.45
78584;BME280;67880;46.082;18.234;2023-06-14T02:10:47;99273.84;;;15.31;56.50
78584;BME280;67880;46.082;18.234;2023-06-14T02:11:19;99272.13;;;15.24;56.73
78584;BME280;67880;46.082;18.234;2023-06-14T02:11:51;99277.34;;;15.25;56.13
78584;BME280;67880;46.082;18.234;2023-06-14T02:12:23;99278.38;;;15.24;56.52
78584;BME280;67880;46.082;18.234;2023-06-14T02:12:55;99288.81;;;15.27;55.11
78584;BME280;67880;46.082;18.234;2023-06-14T02:13:27;99279.22;;;15.25;55.89
78584;BME280;67880;46.082;18.234;2023-06-14T02:13:59;99282.38;;;15.28;56.10
78584;BME280;67880;46.082;18.234;2023-06-14T02:14:32;99273.59;;;15.26;55.86
78584;BME280;67880;46.082;18.234;2023-06-14T02:15:05;99288.19;;;15.32;55.88
78584;BME280;67880;46.082;18.234;2023-06-14T02:15:38;99283.41;;;15.27;56.51
78584;BME280;67880;46.082;18.234;2023-06-14T02:16:10;99284.47;;;15.33;55.80
78584;BME280;67880;46.082;18.234;2023-06-14T02:16:43;99283.63;;;15.32;55.96
78584;BME280;67880;46.082;18.234;2023-06-14T02:17:20;99284.03;;;15.29;56.65
78584;BME280;67880;46.082;18.234;2023-06-14T02:17:52;99285.28;;;15.27;56.71
78584;BME280;67880;46.082;18.234;2023-06-14T02:18:26;99293.44;;;15.33;56.30
78584;BME280;67880;46.082;18.234;2023-06-14T02:18:58;99283.19;;;15.29;56.65
78584;BME280;67880;46.082;18.234;2023-06-14T02:19:30;99286.53;;;15.31;56.79
78584;BME280;67880;46.082;18.234;2023-06-14T02:20:02;99285.28;;;15.27;56.58
78584;BME280;67880;46.082;18.234;2023-06-14T02:20:36;99283.19;;;15.29;56.89
78584;BME280;67880;46.082;18.234;2023-06-14T02:21:08;99281.31;;;15.29;56.98
78584;BME280;67880;46.082;18.234;2023-06-14T02:21:40;99281.09;;;15.24;57.00
78584;BME280;67880;46.082;18.234;2023-06-14T02:22:12;99283.56;;;15.26;56.32
78584;BME280;67880;46.082;18.234;2023-06-14T02:22:46;99289.19;;;15.24;56.75
78584;BME280;67880;46.082;18.234;2023-06-14T02:23:18;99283.13;;;15.15;56.52
78584;BME280;67880;46.082;18.234;2023-06-14T02:23:50;99286.03;;;15.14;56.83
78584;BME280;67880;46.082;18.234;2023-06-14T02:24:23;99279.38;;;15.16;56.95
78584;BME280;67880;46.082;18.234;2023-06-14T02:24:55;99282.91;;;15.17;56.80
78584;BME280;67880;46.082;18.234;2023-06-14T02:25:33;99282.72;;;15.18;56.57
78584;BME280;67880;46.082;18.234;2023-06-14T02:26:05;99295.84;;;15.22;56.56
78584;BME280;67880;46.082;18.234;2023-06-14T02:26:37;99288.94;;;15.19;56.64
78584;BME280;67880;46.082;18.234;2023-06-14T02:27:09;99283.75;;;15.17;56.45
78584;BME280;67880;46.082;18.234;2023-06-14T02:27:44;99292.25;;;15.14;56.01
78584;BME280;67880;46.082;18.234;2023-06-14T02:28:16;99283.31;;;15.14;56.40
78584;BME280;67880;46.082;18.234;2023-06-14T02:29:21;99283.75;;;15.17;56.15
78584;BME280;67880;46.082;18.234;2023-06-14T02:29:53;99290.59;;;15.13;56.07
78584;BME280;67880;46.082;18.234;2023-06-14T02:30:25;99284.78;;;15.16;56.21
78584;BME280;67880;46.082;18.234;2023-06-14T02:31:31;99282.28;;;15.15;55.93
78584;BME280;67880;46.082;18.234;2023-06-14T02:32:06;99279.41;;;15.23;56.23
78584;BME280;67880;46.082;18.234;2023-06-14T02:32:39;99281.88;;;15.18;55.93
78584;BME280;67880;46.082;18.234;2023-06-14T02:33:12;99282.72;;;15.18;56.09
78584;BME280;67880;46.082;18.234;2023-06-14T02:33:44;99282.31;;;15.22;56.56
78584;BME280;67880;46.082;18.234;2023-06-14T02:34:17;99285.66;;;15.24;56.53
78584;BME280;67880;46.082;18.234;2023-06-14T02:34:49;99281.50;;;15.21;56.45
78584;BME280;67880;46.082;18.234;2023-06-14T02:35:22;99287.53;;;15.23;56.71
78584;BME280;67880;46.082;18.234;2023-06-14T02:35:56;99279.22;;;15.25;56.53
78584;BME280;67880;46.082;18.234;2023-06-14T02:36:28;99284.00;;;15.23;56.21
78584;BME280;67880;46.082;18.234;2023-06-14T02:37:04;99285.44;;;15.25;56.53
78584;BME280;67880;46.082;18.234;2023-06-14T02:37:36;99283.78;;;15.24;56.30
78584;BME280;67880;46.082;18.234;2023-06-14T02:38:08;99285.28;;;15.27;56.42
78584;BME280;67880;46.082;18.234;2023-06-14T02:38:40;99286.50;;;15.24;56.11
78584;BME280;67880;46.082;18.234;2023-06-14T02:39:12;99284.81;;;15.23;56.28
78584;BME280;67880;46.082;18.234;2023-06-14T02:39:44;99281.28;;;15.23;56.20
78584;BME280;67880;46.082;18.234;2023-06-14T02:40:49;99274.84;;;15.24;56.09
78584;BME280;67880;46.082;18.234;2023-06-14T02:41:21;99284.81;;;15.23;55.95
78584;BME280;67880;46.082;18.234;2023-06-14T02:41:53;99287.72;;;15.22;56.15
78584;BME280;67880;46.082;18.234;2023-06-14T02:42:26;99283.53;;;15.19;55.72
78584;BME280;67880;46.082;18.234;2023-06-14T02:42:57;99289.00;;;15.26;56.18
78584;BME280;67880;46.082;18.234;2023-06-14T02:43:29;99285.66;;;15.24;56.12
78584;BME280;67880;46.082;18.234;2023-06-14T02:44:01;99286.91;;;15.21;56.34
78584;BME280;67880;46.082;18.234;2023-06-14T02:44:33;99287.53;;;15.23;55.91
78584;BME280;67880;46.082;18.234;2023-06-14T02:45:07;99284.63;;;15.25;56.43
78584;BME280;67880;46.082;18.234;2023-06-14T02:45:40;99286.06;;;15.21;55.98
78584;BME280;67880;46.082;18.234;2023-06-14T02:46:12;99285.63;;;15.17;56.72
78584;BME280;67880;46.082;18.234;2023-06-14T02:46:44;99282.28;;;15.15;56.83
78584;BME280;67880;46.082;18.234;2023-06-14T02:47:53;99282.94;;;15.24;56.87
78584;BME280;67880;46.082;18.234;2023-06-14T02:48:27;99288.78;;;15.21;56.61
78584;BME280;67880;46.082;18.234;2023-06-14T02:49:00;99282.72;;;15.18;56.90
78584;BME280;67880;46.082;18.234;2023-06-14T02:49:32;99284.78;;;15.16;56.96
78584;BME280;67880;46.082;18.234;2023-06-14T02:50:05;99280.41;;;15.15;56.76
78584;BME280;67880;46.082;18.234;2023-06-14T02:50:37;99284.78;;;15.16;57.38
78584;BME280;67880;46.082;18.234;2023-06-14T02:51:09;99281.25;;;15.16;57.05
78584;BME280;67880;46.082;18.234;2023-06-14T02:51:41;99280.22;;;15.17;57.37
78584;BME280;67880;46.082;18.234;2023-06-14T02:52:13;99286.06;;;15.21;57.17
78584;BME280;67880;46.082;18.234;2023-06-14T02:52:45;99283.94;;;15.16;57.78
78584;BME280;67880;46.082;18.234;2023-06-14T02:53:17;99287.50;;;15.16;57.31
78584;BME280;67880;46.082;18.234;2023-06-14T02:53:49;99287.91;;;15.13;57.11
78584;BME280;67880;46.082;18.234;2023-06-14T02:54:22;99285.19;;;15.13;57.51
78584;BME280;67880;46.082;18.234;2023-06-14T02:54:54;99289.75;;;15.13;57.65
78584;BME280;67880;46.082;18.234;2023-06-14T02:55:26;99292.00;;;15.09;57.91
78584;BME280;67880;46.082;18.234;2023-06-14T02:56:32;99290.53;;;15.07;58.33
78584;BME280;67880;46.082;18.234;2023-06-14T02:57:05;99289.94;;;15.11;58.19
78584;BME280;67880;46.082;18.234;2023-06-14T02:57:38;99283.66;;;15.04;58.06
78584;BME280;67880;46.082;18.234;2023-06-14T02:58:10;99285.72;;;15.02;58.42
78584;BME280;67880;46.082;18.234;2023-06-14T02:58:42;99283.66;;;15.04;57.98
78584;BME280;67880;46.082;18.234;2023-06-14T02:59:15;99291.38;;;15.07;58.27
78584;BME280;67880;46.082;18.234;2023-06-14T02:59:47;99289.69;;;15.06;58.14
78584;BME280;67880;46.082;18.234;2023-06-14T03:00:19;99296.53;;;15.02;58.51
78584;BME280;67880;46.082;18.234;2023-06-14T03:00:51;99287.59;;;15.02;57.70
78584;BME280;67880;46.082;18.234;2023-06-14T03:01:27;99290.47;;;15.00;57.94
78584;BME280;67880;46.082;18.234;2023-06-14T03:02:05;99292.81;;;15.03;58.11
78584;BME280;67880;46.082;18.234;2023-06-14T03:02:37;99290.31;;;15.02;58.04
78584;BME280;67880;46.082;18.234;2023-06-14T03:03:09;99286.31;;;14.98;58.40
78584;BME280;67880;46.082;18.234;2023-06-14T03:03:46;99283.59;;;14.98;58.48
78584;BME280;67880;46.082;18.234;2023-06-14T03:04:18;99286.31;;;14.98;58.79
78584;BME280;67880;46.082;18.234;2023-06-14T03:04:50;99286.72;;;14.95;58.72
78584;BME280;67880;46.082;18.234;2023-06-14T03:05:22;99292.97;;;14.95;58.91
78584;BME280;67880;46.082;18.234;2023-06-14T03:05:54;99289.66;;;15.00;58.96
78584;BME280;67880;46.082;18.234;2023-06-14T03:06:26;99294.03;;;15.01;58.49
78584;BME280;67880;46.082;18.234;2023-06-14T03:07:00;99296.50;;;14.96;58.77
78584;BME280;67880;46.082;18.234;2023-06-14T03:07:34;99296.69;;;14.94;59.21
78584;BME280;67880;46.082;18.234;2023-06-14T03:08:06;99287.50;;;14.88;58.96
78584;BME280;67880;46.082;18.234;2023-06-14T03:08:38;99289.81;;;14.92;58.78
78584;BME280;67880;46.082;18.234;2023-06-14T03:09:11;99287.69;;;14.87;58.78
78584;BME280;67880;46.082;18.234;2023-06-14T03:09:43;99287.94;;;14.92;58.94
78584;BME280;67880;46.082;18.234;2023-06-14T03:10:49;99287.34;;;14.97;58.52
78584;BME280;67880;46.082;18.234;2023-06-14T03:11:21;99290.06;;;14.97;58.63